createdAt,value
2022-09-26T00:01:29.831Z,1014.49
2022-09-26T00:30:02.405Z,1014.36
2022-09-26T00:58:29.646Z,1014.11
2022-09-26T01:27:05.514Z,1013.98
2022-09-26T01:55:50.357Z,1013.83
2022-09-26T02:24:14.833Z,1013.55
2022-09-26T02:52:47.656Z,1013.26
2022-09-26T03:21:39.070Z,1012.7
2022-09-26T03:49:59.553Z,1012.58
2022-09-26T04:18:35.383Z,1011.99
2022-09-26T04:47:09.053Z,1011.92
2022-09-26T05:15:55.014Z,1011.81
2022-09-26T05:44:27.927Z,1011.71
2022-09-26T06:13:05.754Z,1011.45
2022-09-26T06:41:34.960Z,1011.35
2022-09-26T07:10:02.282Z,1011.19
2022-09-26T07:38:25.997Z,1011.11
2022-09-26T08:07:01.294Z,1010.78
2022-09-26T08:35:30.560Z,1010.76
2022-09-26T09:03:46.619Z,1010.64
2022-09-26T09:32:29.283Z,1010.43
2022-09-26T10:01:04.411Z,1010.19
2022-09-26T10:29:29.438Z,1009.91
2022-09-26T10:57:54.882Z,1009.77
2022-09-26T11:26:20.213Z,1009.48
2022-09-26T11:54:54.542Z,1009.15
2022-09-26T12:23:30.953Z,1008.73
2022-09-26T12:52:15.489Z,1008.27
2022-09-26T13:20:53.419Z,1007.88
2022-09-26T13:49:25.746Z,1007.54
2022-09-26T14:17:48.794Z,1007.16
2022-09-26T14:46:10.032Z,1006.74
2022-09-26T15:14:54.904Z,1006.39
2022-09-26T15:43:19.699Z,1005.85
2022-09-26T16:13:24.941Z,1005.43
2022-09-26T16:41:27.372Z,1005.49
2022-09-26T17:09:32.326Z,1005.15
2022-09-26T17:37:50.017Z,1004.82
2022-09-26T18:06:19.876Z,1004.4
2022-09-26T18:34:38.957Z,1004.31
2022-09-26T19:03:27.306Z,1004.39
2022-09-26T19:31:25.156Z,1004.51
2022-09-26T20:00:02.083Z,1004.29
2022-09-26T20:28:45.001Z,1003.96
2022-09-26T20:57:33.562Z,1003.61
2022-09-26T21:25:37.568Z,1003.24
2022-09-26T21:54:09.029Z,1002.88
2022-09-26T22:22:55.068Z,1002.31
2022-09-26T22:51:35.809Z,1001.89
2022-09-26T23:20:24.440Z,1001.76
2022-09-26T23:48:58.844Z,1001.53
